createdAt,value
2022-11-27T00:01:03.127Z,80.19
2022-11-27T00:05:07.850Z,80.19
2022-11-27T00:10:07.855Z,80.19
2022-11-27T00:15:09.298Z,80.19
2022-11-27T00:20:08.019Z,80.21
2022-11-27T00:25:07.749Z,80.2
2022-11-27T00:30:08.467Z,80.2
2022-11-27T00:35:08.189Z,80.21
2022-11-27T00:40:07.920Z,80.22
2022-11-27T00:45:08.720Z,80.21
2022-11-27T00:50:08.446Z,80.23
2022-11-27T00:55:08.140Z,80.23
2022-11-27T01:00:07.838Z,80.23
2022-11-27T01:05:07.746Z,80.22
2022-11-27T01:10:08.459Z,80.23
2022-11-27T01:15:08.155Z,80.24
2022-11-27T01:20:07.921Z,80.23
2022-11-27T01:25:08.627Z,80.22
2022-11-27T01:30:08.341Z,80.23
2022-11-27T01:35:08.067Z,80.24
2022-11-27T01:40:07.811Z,80.23
2022-11-27T01:45:08.501Z,80.23
2022-11-27T01:50:08.194Z,80.22
2022-11-27T01:55:07.899Z,80.24
2022-11-27T02:00:08.589Z,80.24
2022-11-27T02:05:08.315Z,80.25
2022-11-27T02:10:08.031Z,80.25
2022-11-27T02:15:07.749Z,80.24
2022-11-27T02:20:08.484Z,80.28
2022-11-27T02:25:08.227Z,80.24
2022-11-27T02:30:07.949Z,80.23
2022-11-27T02:35:07.694Z,80.25
2022-11-27T02:40:08.447Z,80.25
2022-11-27T02:45:08.152Z,80.26
2022-11-27T02:50:07.860Z,80.23
2022-11-27T02:55:08.617Z,80.23
2022-11-27T03:00:08.338Z,80.27
2022-11-27T03:05:08.046Z,80.26
2022-11-27T03:10:07.735Z,80.22
2022-11-27T03:15:08.458Z,80.26
2022-11-27T03:20:08.193Z,80.25
2022-11-27T03:25:07.928Z,80.23
2022-11-27T03:30:08.671Z,80.25
2022-11-27T03:35:08.393Z,80.26
2022-11-27T03:40:08.114Z,80.25
2022-11-27T03:45:07.798Z,80.24
2022-11-27T03:50:12.561Z,80.26
2022-11-27T03:55:08.463Z,80.25
2022-11-27T04:00:08.190Z,80.27
2022-11-27T04:05:07.911Z,80.26
2022-11-27T04:10:08.634Z,80.25
2022-11-27T04:15:08.337Z,80.26
2022-11-27T04:20:08.056Z,80.29
2022-11-27T04:25:07.736Z,80.3
2022-11-27T04:30:08.443Z,80.3
2022-11-27T04:35:08.120Z,80.3
2022-11-27T04:40:07.847Z,80.3
2022-11-27T04:45:08.561Z,80.32
2022-11-27T04:50:08.297Z,80.3
2022-11-27T04:55:08.026Z,80.32
2022-11-27T05:00:07.753Z,80.31
2022-11-27T05:05:02.587Z,80.33
2022-11-27T05:10:02.856Z,80.3
2022-11-27T05:15:04.615Z,80.3
2022-11-27T05:20:02.709Z,80.3
2022-11-27T05:25:02.537Z,80.32
2022-11-27T05:30:02.493Z,80.32
2022-11-27T05:35:02.282Z,80.32
2022-11-27T05:40:02.129Z,80.3
2022-11-27T05:45:01.933Z,80.3
2022-11-27T05:50:01.792Z,80.3
2022-11-27T05:55:02.633Z,80.33
2022-11-27T06:00:02.529Z,80.31
2022-11-27T06:05:02.378Z,80.31
2022-11-27T06:10:02.215Z,80.31
2022-11-27T06:15:02.044Z,80.31
2022-11-27T06:20:01.876Z,80.32
2022-11-27T06:25:02.725Z,80.32
2022-11-27T06:30:02.552Z,80.3
2022-11-27T06:35:02.407Z,80.31
2022-11-27T06:40:02.312Z,80.32
2022-11-27T06:45:02.155Z,80.32
2022-11-27T06:50:01.965Z,80.33
2022-11-27T06:55:01.917Z,80.32
2022-11-27T07:00:02.863Z,80.32
2022-11-27T07:05:02.884Z,80.33
2022-11-27T07:10:02.877Z,80.33
2022-11-27T07:15:04.343Z,80.33
2022-11-27T07:20:02.576Z,80.34
2022-11-27T07:25:02.499Z,80.32
2022-11-27T07:30:02.429Z,80.32
2022-11-27T07:35:02.271Z,80.32
2022-11-27T07:40:03.216Z,80.32
2022-11-27T07:45:02.454Z,80.31
2022-11-27T07:50:02.257Z,80.31
2022-11-27T07:55:02.081Z,80.34
2022-11-27T08:00:01.961Z,80.33
2022-11-27T08:05:01.780Z,80.33
2022-11-27T08:10:02.630Z,80.33
2022-11-27T08:15:02.438Z,80.34
2022-11-27T08:20:02.253Z,80.33
2022-11-27T08:25:02.110Z,80.32
2022-11-27T08:30:01.928Z,80.31
2022-11-27T08:35:02.880Z,80.32
2022-11-27T08:40:02.743Z,80.3
2022-11-27T08:45:02.637Z,80.29
2022-11-27T08:50:02.484Z,80.3
2022-11-27T08:55:02.313Z,80.28
2022-11-27T09:00:02.140Z,80.27
2022-11-27T09:05:01.946Z,80.28
2022-11-27T09:10:01.756Z,80.27
2022-11-27T09:15:02.613Z,80.25
2022-11-27T09:20:02.804Z,80.25
2022-11-27T09:25:02.570Z,80.26
2022-11-27T09:30:02.409Z,80.24
2022-11-27T09:35:02.420Z,80.25
2022-11-27T09:40:02.366Z,80.23
2022-11-27T09:45:02.317Z,80.21
2022-11-27T09:50:02.226Z,80.21
2022-11-27T09:55:12.070Z,80.22
2022-11-27T10:00:02.012Z,80.19
2022-11-27T10:05:14.887Z,80.18
2022-11-27T10:10:02.175Z,80.19
2022-11-27T10:15:02.013Z,80.16
2022-11-27T10:20:01.857Z,80.17
2022-11-27T10:25:02.675Z,80.18
2022-11-27T10:30:02.475Z,80.18
2022-11-27T10:35:12.395Z,80.17
2022-11-27T10:40:02.364Z,80.18
2022-11-27T10:45:02.187Z,80.17
2022-11-27T10:50:02.103Z,80.17
2022-11-27T10:55:02.137Z,80.18
2022-11-27T11:00:02.250Z,80.16
2022-11-27T11:05:24.481Z,80.18
2022-11-27T11:10:02.471Z,80.18
2022-11-27T11:15:02.340Z,80.18
2022-11-27T11:20:02.271Z,80.17
2022-11-27T11:25:02.121Z,80.16
2022-11-27T11:30:02.006Z,80.16
2022-11-27T11:35:11.878Z,80.15
2022-11-27T11:40:02.940Z,80.14
2022-11-27T11:45:01.780Z,80.15
2022-11-27T11:50:02.690Z,80.14
2022-11-27T11:55:02.606Z,80.16
2022-11-27T12:00:02.454Z,80.14
2022-11-27T12:05:02.406Z,80.13
2022-11-27T12:10:02.258Z,80.12
2022-11-27T12:15:12.424Z,80.13
2022-11-27T12:20:02.311Z,80.11
2022-11-27T12:25:02.274Z,80.1
2022-11-27T12:30:02.269Z,80.09
2022-11-27T12:35:02.393Z,80.11
2022-11-27T12:40:02.409Z,80.09
2022-11-27T12:45:12.472Z,80.1
2022-11-27T12:50:02.489Z,80.08
2022-11-27T12:55:02.346Z,80.08
2022-11-27T13:00:02.241Z,80.08
2022-11-27T13:05:02.133Z,80.06
2022-11-27T13:10:01.991Z,80.07
2022-11-27T13:15:01.842Z,80.07
2022-11-27T13:20:02.619Z,80.08
2022-11-27T13:25:02.462Z,80.07
2022-11-27T13:30:08.046Z,80.08
2022-11-27T13:35:01.939Z,80.08
2022-11-27T13:40:02.769Z,80.08
2022-11-27T13:45:02.615Z,80.08
2022-11-27T13:50:02.466Z,80.12
2022-11-27T13:55:02.521Z,80.12
2022-11-27T14:00:02.539Z,80.14
2022-11-27T14:05:02.419Z,80.14
2022-11-27T14:10:02.264Z,80.16
2022-11-27T14:15:02.073Z,80.17
2022-11-27T14:20:01.873Z,80.19
2022-11-27T14:25:02.858Z,80.2
2022-11-27T14:30:02.701Z,80.17
2022-11-27T14:35:02.548Z,80.13
2022-11-27T14:40:02.609Z,80.13
2022-11-27T14:45:02.492Z,80.15
2022-11-27T14:50:02.469Z,80.14
2022-11-27T14:55:02.334Z,80.17
2022-11-27T15:00:02.241Z,80.18
2022-11-27T15:05:02.243Z,80.16
2022-11-27T15:10:02.273Z,80.19
2022-11-27T15:15:02.237Z,80.18
2022-11-27T15:20:02.259Z,80.18
2022-11-27T15:25:02.258Z,80.19
2022-11-27T15:30:02.288Z,80.21
2022-11-27T15:35:02.440Z,80.24
2022-11-27T15:40:12.291Z,80.23
2022-11-27T15:45:05.338Z,80.22
2022-11-27T15:50:02.305Z,80.25
2022-11-27T15:55:02.284Z,80.27
2022-11-27T16:00:02.086Z,80.24
2022-11-27T16:05:06.956Z,80.24
2022-11-27T16:10:01.909Z,80.23
2022-11-27T16:15:02.723Z,80.25
2022-11-27T16:20:02.658Z,80.25
2022-11-27T16:25:02.501Z,80.27
2022-11-27T16:30:02.388Z,80.27
2022-11-27T16:35:02.485Z,80.27
2022-11-27T16:40:02.345Z,80.28
2022-11-27T16:45:02.314Z,80.29
2022-11-27T16:50:02.307Z,80.28
2022-11-27T16:55:02.399Z,80.31
2022-11-27T17:00:02.379Z,80.3
2022-11-27T17:05:02.256Z,80.29
2022-11-27T17:10:02.359Z,80.29
2022-11-27T17:15:02.244Z,80.29
2022-11-27T17:20:02.202Z,80.29
2022-11-27T17:25:02.121Z,80.3
2022-11-27T17:30:01.943Z,80.3
2022-11-27T17:35:01.930Z,80.29
2022-11-27T17:40:03.066Z,80.3
2022-11-27T17:45:02.227Z,80.31
2022-11-27T17:50:02.423Z,80.3
2022-11-27T17:55:02.658Z,80.3
2022-11-27T18:00:02.653Z,80.3
2022-11-27T18:05:02.552Z,80.31
2022-11-27T18:10:02.480Z,80.3
2022-11-27T18:15:02.424Z,80.31
2022-11-27T18:20:02.312Z,80.32
2022-11-27T18:25:02.225Z,80.29
2022-11-27T18:30:02.133Z,80.29
2022-11-27T18:35:02.311Z,80.3
2022-11-27T18:40:02.230Z,80.3
2022-11-27T18:45:02.385Z,80.29
2022-11-27T18:50:02.309Z,80.3
2022-11-27T18:55:02.230Z,80.31
2022-11-27T19:00:02.129Z,80.32
2022-11-27T19:05:01.954Z,80.3
2022-11-27T19:10:01.868Z,80.31
2022-11-27T19:15:02.721Z,80.31
2022-11-27T19:20:02.627Z,80.31
2022-11-27T19:25:02.719Z,80.3
2022-11-27T19:30:02.501Z,80.3
2022-11-27T19:35:06.904Z,80.31
2022-11-27T19:40:02.380Z,80.32
2022-11-27T19:45:02.284Z,80.33
2022-11-27T19:50:02.292Z,80.33
2022-11-27T19:55:02.491Z,80.33
2022-11-27T20:00:02.412Z,80.35
2022-11-27T20:05:02.306Z,80.35
2022-11-27T20:10:02.339Z,80.36
2022-11-27T20:15:02.175Z,80.36
2022-11-27T20:20:02.230Z,80.34
2022-11-27T20:25:18.919Z,80.36
2022-11-27T20:30:02.651Z,80.37
2022-11-27T20:35:02.739Z,80.36
2022-11-27T20:40:02.746Z,80.37
2022-11-27T20:45:02.725Z,80.37
2022-11-27T20:50:02.775Z,80.38
2022-11-27T20:55:02.837Z,80.39
2022-11-27T21:00:02.950Z,80.39
2022-11-27T21:05:01.988Z,80.37
2022-11-27T21:10:01.895Z,80.39
2022-11-27T21:15:02.772Z,80.41
2022-11-27T21:20:03.001Z,80.4
2022-11-27T21:25:01.923Z,80.39
2022-11-27T21:30:02.974Z,80.41
2022-11-27T21:35:01.826Z,80.41
2022-11-27T21:40:02.733Z,80.4
2022-11-27T21:45:02.673Z,80.39
2022-11-27T21:50:02.525Z,80.41
2022-11-27T21:55:04.658Z,80.41
2022-11-27T22:00:02.395Z,80.41
2022-11-27T22:05:02.305Z,80.41
2022-11-27T22:10:02.355Z,80.42
2022-11-27T22:15:02.264Z,80.4
2022-11-27T22:20:02.248Z,80.43
2022-11-27T22:25:02.020Z,80.41
2022-11-27T22:30:01.961Z,80.4
2022-11-27T22:35:14.644Z,80.41
2022-11-27T22:40:08.373Z,80.43
2022-11-27T22:45:08.071Z,80.43
2022-11-27T22:50:08.128Z,80.43
2022-11-27T22:55:07.874Z,80.43
2022-11-27T23:00:08.686Z,80.44
2022-11-27T23:05:08.370Z,80.44
2022-11-27T23:10:08.105Z,80.45
2022-11-27T23:15:07.806Z,80.43
2022-11-27T23:20:08.513Z,80.44
2022-11-27T23:25:08.319Z,80.43
2022-11-27T23:30:08.035Z,80.42
2022-11-27T23:35:07.763Z,80.43
2022-11-27T23:40:08.539Z,80.43
2022-11-27T23:45:08.255Z,80.41
2022-11-27T23:50:07.969Z,80.42
2022-11-27T23:55:07.691Z,80.43
